Time;durP1;ratioP1;P1;durP2;ratioP2;P2;SDS_P1;SDS_P2;PMS_P1;PMS_P2;Temp;Humidity;BMP_temperature;BMP_pressure;BME280_temperature;BME280_humidity;BME280_pressure;Samples;Min_cycle;Max_cycle;Signal;HPM_P1;HPM_P2
2022/07/12 00:00:16;;;;;;;5.50;5.00;;;17.30;99.90;;;;;;4877614;29;20302;-60
2022/07/12 00:02:44;;;;;;;6.20;5.60;;;17.20;99.90;;;;;;4877737;29;20283;-60
2022/07/12 00:05:13;;;;;;;4.80;4.50;;;17.20;99.90;;;;;;4876265;29;20544;-60
2022/07/12 00:07:46;;;;;;;5.43;4.90;;;17.20;99.90;;;;;;4876278;29;20266;-60
2022/07/12 00:10:14;;;;;;;5.93;4.53;;;17.20;99.90;;;;;;4875157;29;20204;-60
2022/07/12 00:12:43;;;;;;;7.37;4.73;;;17.10;99.90;;;;;;4877708;29;20212;-60
2022/07/12 00:15:11;;;;;;;5.57;5.17;;;17.10;99.90;;;;;;4877473;29;20218;-60
2022/07/12 00:17:40;;;;;;;5.80;5.07;;;17.10;99.90;;;;;;4877720;29;20208;-60
2022/07/12 00:20:09;;;;;;;6.00;5.40;;;17.10;99.90;;;;;;4877245;29;20219;-60
2022/07/12 00:22:38;;;;;;;6.23;5.63;;;17.00;99.90;;;;;;4877508;29;20320;-60
2022/07/12 00:25:09;;;;;;;6.80;6.20;;;17.00;99.90;;;;;;4876349;29;20302;-60
2022/07/12 00:27:37;;;;;;;6.47;5.77;;;17.00;99.90;;;;;;4876402;29;20215;-60
2022/07/12 00:30:09;;;;;;;6.03;5.53;;;17.00;99.90;;;;;;4877791;29;20199;-60
2022/07/12 00:32:38;;;;;;;6.07;5.50;;;17.00;99.90;;;;;;4872786;29;20212;-60
2022/07/12 00:35:07;;;;;;;5.80;5.30;;;17.00;99.90;;;;;;4878202;29;20231;-60
2022/07/12 00:37:36;;;;;;;6.50;5.93;;;16.90;99.90;;;;;;4879548;29;20206;-60
2022/07/12 00:40:08;;;;;;;6.30;5.80;;;16.90;99.90;;;;;;4879323;29;20219;-60
2022/07/12 00:42:38;;;;;;;7.10;6.50;;;16.90;99.90;;;;;;4880839;29;20602;-60
2022/07/12 00:45:08;;;;;;;6.77;5.97;;;16.80;99.90;;;;;;4880601;29;20210;-60
2022/07/12 00:47:40;;;;;;;8.07;6.60;;;16.80;99.90;;;;;;4879632;29;20666;-60
2022/07/12 00:50:10;;;;;;;6.67;6.03;;;16.80;99.90;;;;;;4880762;29;20601;-60
2022/07/12 00:52:40;;;;;;;7.23;6.20;;;16.70;99.90;;;;;;4884495;29;20649;-60
2022/07/12 00:55:11;;;;;;;7.63;6.63;;;16.70;99.90;;;;;;4886314;29;20684;-60
2022/07/12 00:57:43;;;;;;;6.50;6.03;;;16.70;99.90;;;;;;4880379;29;20208;-60
2022/07/12 01:00:15;;;;;;;6.93;6.10;;;16.70;99.90;;;;;;4880002;29;20311;-60
2022/07/12 01:02:46;;;;;;;7.10;6.40;;;16.70;99.90;;;;;;4877006;29;20213;-60
2022/07/12 01:05:14;;;;;;;12.37;6.70;;;16.70;99.90;;;;;;4878669;29;20195;-60
2022/07/12 01:07:45;;;;;;;7.97;7.27;;;16.60;99.90;;;;;;4880121;29;20309;-60
2022/07/12 01:10:15;;;;;;;7.53;6.93;;;16.60;99.90;;;;;;4878602;29;20195;-60
2022/07/12 01:12:44;;;;;;;10.07;7.00;;;16.60;99.90;;;;;;4879572;29;20219;-60
2022/07/12 01:15:12;;;;;;;7.80;7.17;;;16.60;99.90;;;;;;4877868;29;20247;-60
2022/07/12 01:17:42;;;;;;;8.60;7.73;;;16.60;99.90;;;;;;4878927;29;20277;-61
2022/07/12 01:20:15;;;;;;;7.30;6.70;;;16.60;99.90;;;;;;4878519;29;20218;-60
2022/07/12 01:22:53;;;;;;;8.07;7.33;;;16.60;99.90;;;;;;4878441;29;20247;-60
2022/07/12 01:25:22;;;;;;;7.70;6.97;;;16.60;99.90;;;;;;4878871;29;20208;-60
2022/07/12 01:27:52;;;;;;;7.67;6.87;;;16.60;99.90;;;;;;4874667;29;20238;-60
2022/07/12 01:30:20;;;;;;;7.33;6.60;;;16.60;99.90;;;;;;4879573;29;20200;-60
2022/07/12 01:32:49;;;;;;;7.20;6.60;;;16.60;99.90;;;;;;4878564;29;20849;-62
2022/07/12 01:35:18;;;;;;;6.90;6.20;;;16.50;99.90;;;;;;4878501;29;20271;-62
2022/07/12 01:37:48;;;;;;;8.37;6.47;;;16.60;99.90;;;;;;4879600;29;20214;-62
2022/07/12 01:40:17;;;;;;;6.93;6.33;;;16.50;99.90;;;;;;4879547;29;20223;-62
2022/07/12 01:42:45;;;;;;;6.80;6.20;;;16.50;99.90;;;;;;4878555;29;20199;-62
2022/07/12 01:45:14;;;;;;;7.13;6.43;;;16.40;99.90;;;;;;4878415;29;20300;-62
2022/07/12 01:47:42;;;;;;;6.20;5.70;;;16.40;99.90;;;;;;4877987;29;20705;-62
2022/07/12 01:50:12;;;;;;;7.10;6.50;;;16.30;99.90;;;;;;4877927;29;20548;-60
2022/07/12 01:52:41;;;;;;;6.63;6.00;;;16.30;99.90;;;;;;4883575;29;20227;-60
2022/07/12 01:55:12;;;;;;;6.30;5.70;;;16.20;99.90;;;;;;4884172;29;20285;-60
2022/07/12 01:57:43;;;;;;;6.50;6.00;;;16.10;99.90;;;;;;4878307;29;20213;-60
2022/07/12 02:00:12;;;;;;;6.57;5.87;;;16.10;99.90;;;;;;4878907;29;20551;-60
2022/07/12 02:02:41;;;;;;;6.80;6.30;;;16.10;99.90;;;;;;4879094;29;20208;-60
2022/07/12 02:05:10;;;;;;;6.83;6.33;;;16.00;99.90;;;;;;4879022;29;20231;-60
2022/07/12 02:07:38;;;;;;;7.07;5.57;;;16.00;99.90;;;;;;4878076;29;20218;-60
2022/07/12 02:10:08;;;;;;;6.37;5.77;;;15.90;99.90;;;;;;4878778;29;20207;-60
2022/07/12 02:12:37;;;;;;;6.83;6.20;;;15.80;99.90;;;;;;4877979;29;20211;-60
2022/07/12 02:15:08;;;;;;;6.90;6.30;;;15.80;99.90;;;;;;4878859;29;20234;-60
2022/07/12 02:17:36;;;;;;;7.37;6.60;;;15.70;99.90;;;;;;4877915;29;20210;-60
2022/07/12 02:20:06;;;;;;;6.90;6.27;;;15.70;99.90;;;;;;4878773;29;20259;-60
2022/07/12 02:22:35;;;;;;;6.70;6.07;;;15.70;99.90;;;;;;4878584;29;20240;-60
2022/07/12 02:25:04;;;;;;;6.40;5.90;;;15.70;99.90;;;;;;4877230;29;20293;-60
2022/07/12 02:27:32;;;;;;;6.77;6.13;;;15.60;99.90;;;;;;4877459;29;20618;-60
2022/07/12 02:30:02;;;;;;;8.03;6.70;;;15.60;99.90;;;;;;4877704;29;20228;-60
2022/07/12 02:32:31;;;;;;;7.17;6.47;;;15.60;99.90;;;;;;4878639;29;20200;-62
2022/07/12 02:34:59;;;;;;;7.87;5.60;;;15.60;99.90;;;;;;4878691;29;20641;-62
2022/07/12 02:37:27;;;;;;;5.80;5.40;;;15.50;99.90;;;;;;4877427;29;20225;-62
2022/07/12 02:40:52;;;;;;;6.33;5.83;;;15.50;99.90;;;;;;4877468;29;20583;-62
2022/07/12 02:42:44;;;;;;;6.07;5.57;;;15.50;99.90;;;;;;4877418;29;20636;-62
2022/07/12 02:45:14;;;;;;;6.73;5.93;;;15.40;99.90;;;;;;4878491;29;20660;-60
2022/07/12 02:47:42;;;;;;;5.43;5.00;;;15.40;99.90;;;;;;4878495;29;20207;-60
2022/07/12 02:50:11;;;;;;;11.60;5.43;;;15.30;99.90;;;;;;4877175;29;20552;-60
2022/07/12 02:52:39;;;;;;;5.77;5.27;;;15.30;99.90;;;;;;4882353;29;20555;-60
2022/07/12 02:55:08;;;;;;;5.33;4.83;;;15.20;99.90;;;;;;4885660;29;20213;-60
2022/07/12 02:57:37;;;;;;;5.70;5.23;;;15.20;99.90;;;;;;4877021;29;20679;-62
2022/07/12 03:00:07;;;;;;;5.90;5.50;;;15.20;99.90;;;;;;4877576;29;20223;-62
2022/07/12 03:02:37;;;;;;;6.10;5.67;;;15.10;99.90;;;;;;4878341;29;20195;-62
2022/07/12 03:05:07;;;;;;;6.80;6.10;;;15.00;99.90;;;;;;4876851;29;20204;-60
2022/07/12 03:07:35;;;;;;;7.63;6.33;;;14.90;99.90;;;;;;4877174;29;20203;-60
2022/07/12 03:10:05;;;;;;;8.17;6.60;;;14.90;99.90;;;;;;4860383;29;20207;-60
2022/07/12 03:12:33;;;;;;;10.93;7.50;;;14.90;99.90;;;;;;4877099;29;20273;-62
2022/07/12 03:15:02;;;;;;;8.17;6.60;;;14.90;99.90;;;;;;4877881;29;20211;-62
2022/07/12 03:17:31;;;;;;;7.00;6.40;;;14.80;99.90;;;;;;4878084;29;20262;-62
2022/07/12 03:20:01;;;;;;;8.87;6.93;;;14.80;99.90;;;;;;4877891;29;20220;-62
2022/07/12 03:22:30;;;;;;;7.30;6.67;;;14.80;99.90;;;;;;4876993;29;20270;-62
2022/07/12 03:24:58;;;;;;;7.83;7.03;;;14.70;99.90;;;;;;4877760;29;20205;-62
2022/07/12 03:27:27;;;;;;;7.20;6.60;;;14.70;99.90;;;;;;4877015;29;20211;-62
2022/07/12 03:29:55;;;;;;;7.07;6.47;;;14.70;99.90;;;;;;4877673;29;20199;-62
2022/07/12 03:32:24;;;;;;;9.13;7.70;;;14.60;99.90;;;;;;4878133;29;20278;-62
2022/07/12 03:34:52;;;;;;;7.90;7.10;;;14.60;99.90;;;;;;4877727;29;20265;-62
2022/07/12 03:37:22;;;;;;;8.93;7.33;;;14.60;99.90;;;;;;4877045;29;20215;-62
2022/07/12 03:39:51;;;;;;;7.80;7.00;;;14.60;99.90;;;;;;4877702;29;20235;-62
2022/07/12 03:42:19;;;;;;;7.30;6.60;;;14.60;99.90;;;;;;4876659;29;20628;-62
2022/07/12 03:44:47;;;;;;;8.47;6.50;;;14.60;99.90;;;;;;4877690;29;20715;-62
2022/07/12 03:47:16;;;;;;;7.87;6.97;;;14.70;99.90;;;;;;4878101;29;20311;-62
2022/07/12 03:49:44;;;;;;;7.83;7.13;;;14.70;99.90;;;;;;4877786;29;20287;-62
2022/07/12 03:52:13;;;;;;;7.80;7.00;;;14.70;99.90;;;;;;4877382;29;20552;-62
2022/07/12 03:54:42;;;;;;;13.03;8.17;;;14.70;99.90;;;;;;4887476;29;20200;-62
2022/07/12 03:57:17;;;;;;;9.77;6.80;;;14.60;99.90;;;;;;4876533;29;20210;-62
2022/07/12 03:59:46;;;;;;;7.43;6.77;;;14.60;99.90;;;;;;4877927;29;20205;-62
2022/07/12 04:02:15;;;;;;;7.87;7.20;;;14.60;99.90;;;;;;4875488;29;20222;-60
2022/07/12 04:04:43;;;;;;;7.20;6.50;;;14.60;99.90;;;;;;4875021;29;20291;-62
2022/07/12 04:07:12;;;;;;;9.20;6.53;;;14.60;99.90;;;;;;4875389;29;20203;-62
2022/07/12 04:09:42;;;;;;;7.30;6.27;;;14.60;99.90;;;;;;4875164;29;20321;-62
2022/07/12 04:12:10;;;;;;;7.00;6.40;;;14.60;99.90;;;;;;4879307;29;20275;-62
2022/07/12 04:14:38;;;;;;;7.20;6.70;;;14.60;99.90;;;;;;4879818;29;20282;-62
2022/07/12 04:17:07;;;;;;;8.07;6.80;;;14.60;99.90;;;;;;4879500;29;20223;-62
2022/07/12 04:19:35;;;;;;;6.57;5.97;;;14.60;99.90;;;;;;4880858;29;20210;-62
2022/07/12 04:22:04;;;;;;;7.23;6.43;;;14.60;99.90;;;;;;4863249;29;20235;-62
2022/07/12 04:24:32;;;;;;;7.07;6.47;;;14.60;99.90;;;;;;4879598;29;20253;-62
2022/07/12 04:27:06;;;;;;;7.57;6.80;;;14.70;99.90;;;;;;4881115;29;20775;-62
2022/07/12 04:29:34;;;;;;;6.70;5.87;;;14.80;99.90;;;;;;4878201;29;20208;-62
2022/07/12 04:32:02;;;;;;;7.33;6.23;;;14.80;99.90;;;;;;4881135;29;20290;-62
2022/07/12 04:34:31;;;;;;;9.03;6.33;;;14.90;99.90;;;;;;4880533;29;20538;-62
2022/07/12 04:36:59;;;;;;;9.70;6.40;;;15.00;99.90;;;;;;4880566;29;20655;-62
2022/07/12 04:39:28;;;;;;;8.17;6.47;;;15.10;99.90;;;;;;4880283;29;20223;-62
2022/07/12 04:41:59;;;;;;;6.73;5.90;;;15.20;99.90;;;;;;4878997;29;20304;-62
2022/07/12 04:44:29;;;;;;;6.77;6.17;;;15.40;99.90;;;;;;4879023;29;20743;-62
2022/07/12 04:46:58;;;;;;;7.67;6.97;;;15.60;99.90;;;;;;4879402;29;20215;-62
2022/07/12 04:49:26;;;;;;;9.17;8.27;;;15.80;99.90;;;;;;4879159;29;20231;-60
2022/07/12 04:51:54;;;;;;;10.80;7.97;;;16.00;99.90;;;;;;4880602;29;20200;-60
2022/07/12 04:54:23;;;;;;;9.43;7.80;;;16.20;99.90;;;;;;4892003;29;20212;-60
2022/07/12 04:56:51;;;;;;;8.13;7.30;;;16.40;99.90;;;;;;4880438;29;20271;-60
2022/07/12 04:59:19;;;;;;;9.53;8.00;;;16.50;99.90;;;;;;4879267;29;20211;-60
2022/07/12 05:01:50;;;;;;;9.60;7.97;;;16.60;99.90;;;;;;4879235;29;20223;-60
2022/07/12 05:04:18;;;;;;;10.10;7.97;;;16.70;99.90;;;;;;4880315;29;20219;-62
2022/07/12 05:06:46;;;;;;;11.53;8.10;;;16.80;99.90;;;;;;4880256;29;20353;-62
2022/07/12 05:09:15;;;;;;;10.00;7.73;;;16.90;99.90;;;;;;4879962;29;20217;-60
2022/07/12 05:11:43;;;;;;;8.27;7.47;;;17.00;99.90;;;;;;4879959;29;20193;-60
2022/07/12 05:14:12;;;;;;;9.00;7.57;;;17.20;99.90;;;;;;4877669;29;20276;-60
2022/07/12 05:16:40;;;;;;;9.10;7.10;;;17.30;99.90;;;;;;4879844;29;20228;-60
2022/07/12 05:19:10;;;;;;;8.33;7.00;;;17.50;99.90;;;;;;4878673;29;20211;-60
2022/07/12 05:21:41;;;;;;;8.10;7.40;;;17.70;99.90;;;;;;4878785;29;20247;-60
2022/07/12 05:24:10;;;;;;;9.87;7.47;;;17.80;99.90;;;;;;4880252;29;20206;-60
2022/07/12 05:26:38;;;;;;;9.80;7.43;;;18.00;99.90;;;;;;4879996;29;20199;-60
2022/07/12 05:29:07;;;;;;;8.03;7.33;;;18.20;99.90;;;;;;4878838;29;20661;-60
2022/07/12 05:31:35;;;;;;;8.70;7.77;;;18.30;99.90;;;;;;4879498;29;20218;-60
2022/07/12 05:34:04;;;;;;;8.00;7.20;;;18.40;99.90;;;;;;4879659;29;20746;-60
2022/07/12 05:36:34;;;;;;;7.60;6.90;;;18.50;99.90;;;;;;4878122;29;20206;-60
2022/07/12 05:39:02;;;;;;;9.10;7.10;;;18.70;99.90;;;;;;4879531;29;20242;-60
2022/07/12 05:41:30;;;;;;;8.10;7.00;;;18.70;99.90;;;;;;4877882;29;20281;-60
2022/07/12 05:43:59;;;;;;;11.33;7.40;;;18.70;99.90;;;;;;4877145;29;20285;-60
2022/07/12 05:46:27;;;;;;;9.77;7.63;;;18.70;99.90;;;;;;4879467;29;20237;-60
2022/07/12 05:48:56;;;;;;;8.13;7.30;;;18.70;99.90;;;;;;4879313;29;20234;-60
2022/07/12 05:54:11;;;;;;;9.90;6.93;;;18.90;99.90;;;;;;4889404;29;20690;-60
2022/07/12 05:56:40;;;;;;;13.33;6.90;;;19.10;99.90;;;;;;4876159;29;20218;-60
2022/07/12 05:59:08;;;;;;;14.40;6.40;;;19.30;99.90;;;;;;4878519;29;20286;-60
2022/07/12 06:01:36;;;;;;;7.60;6.80;;;19.50;99.90;;;;;;4877306;29;20285;-60
2022/07/12 06:04:05;;;;;;;8.63;6.47;;;19.70;99.90;;;;;;4878949;29;20605;-60
2022/07/12 06:06:34;;;;;;;8.10;6.50;;;19.90;99.90;;;;;;4878814;29;20217;-60
2022/07/12 06:09:03;;;;;;;10.20;6.17;;;20.10;99.90;;;;;;4877757;29;20651;-60
2022/07/12 06:11:33;;;;;;;9.90;5.80;;;20.20;99.90;;;;;;4877557;29;20226;-60
2022/07/12 06:14:02;;;;;;;11.30;5.90;;;20.20;99.90;;;;;;4870917;29;20314;-60
2022/07/12 06:16:31;;;;;;;10.80;5.93;;;20.30;99.90;;;;;;4878598;29;20225;-60
2022/07/12 06:18:59;;;;;;;9.63;6.70;;;20.40;99.90;;;;;;4878830;29;20280;-60
2022/07/12 06:21:27;;;;;;;6.20;5.60;;;20.70;99.90;;;;;;4878533;29;20265;-60
2022/07/12 06:23:56;;;;;;;9.50;6.03;;;20.90;99.90;;;;;;4878896;29;20215;-61
2022/07/12 06:26:24;;;;;;;6.60;5.90;;;21.20;99.90;;;;;;4876349;29;20608;-61
2022/07/12 06:28:54;;;;;;;6.40;5.80;;;21.50;99.90;;;;;;4876364;29;20758;-61
2022/07/12 06:31:23;;;;;;;6.10;5.57;;;21.90;99.90;;;;;;4878600;29;20668;-61
2022/07/12 06:33:52;;;;;;;6.03;5.43;;;22.10;99.90;;;;;;4878614;29;20196;-61
2022/07/12 06:36:20;;;;;;;5.73;5.17;;;22.30;99.90;;;;;;4877295;29;20196;-61
2022/07/12 06:38:48;;;;;;;5.67;5.27;;;22.70;99.90;;;;;;4877206;29;20212;-61
2022/07/12 06:41:17;;;;;;;5.90;5.50;;;23.00;99.90;;;;;;4876312;29;20577;-61
2022/07/12 06:43:45;;;;;;;5.97;5.40;;;23.20;99.90;;;;;;4878012;29;20225;-61
2022/07/12 06:46:15;;;;;;;6.50;5.73;;;23.10;99.90;;;;;;4878364;29;20280;-61
2022/07/12 06:48:43;;;;;;;5.73;5.33;;;23.20;99.90;;;;;;4878590;29;20197;-61
2022/07/12 06:51:12;;;;;;;5.27;4.90;;;23.40;99.90;;;;;;4875607;29;20206;-61
2022/07/12 06:53:40;;;;;;;6.28;5.72;;;23.30;99.90;;;;;;4887081;29;20472;-61
2022/07/12 06:56:08;;;;;;;5.97;5.17;;;23.60;99.90;;;;;;4878016;29;20282;-61
2022/07/12 06:58:37;;;;;;;5.50;5.10;;;23.70;99.90;;;;;;4877231;29;20210;-61
2022/07/12 07:01:05;;;;;;;6.00;5.60;;;23.60;99.90;;;;;;4878037;29;20211;-61
2022/07/12 07:03:35;;;;;;;5.70;5.10;;;23.70;99.90;;;;;;4878084;29;20330;-61
2022/07/12 07:06:04;;;;;;;5.43;4.93;;;23.60;99.90;;;;;;4877190;29;20215;-61
2022/07/12 07:08:32;;;;;;;7.03;5.33;;;23.90;99.90;;;;;;4878045;29;20564;-61
2022/07/12 07:11:00;;;;;;;4.83;4.43;;;24.30;99.90;;;;;;4877563;29;20207;-61
2022/07/12 07:13:29;;;;;;;6.27;5.20;;;24.40;99.90;;;;;;4869669;29;20568;-61
2022/07/12 07:15:57;;;;;;;5.22;4.72;;;24.70;99.90;;;;;;4873743;29;20847;-61
2022/07/12 07:18:26;;;;;;;8.30;4.90;;;24.90;99.90;;;;;;4875744;29;20597;-61
2022/07/12 07:20:55;;;;;;;5.30;4.80;;;25.30;99.90;;;;;;4872912;29;20294;-62
2022/07/12 07:23:24;;;;;;;6.00;5.50;;;25.70;99.90;;;;;;4873376;29;20658;-62
2022/07/12 07:25:52;;;;;;;5.38;4.90;;;26.00;99.90;;;;;;4877730;29;20199;-61
2022/07/12 07:28:23;;;;;;;4.55;4.30;;;25.60;99.90;;;;;;4877058;29;20202;-61
2022/07/12 07:31:11;;;;;;;11.45;4.85;;;25.80;99.90;;;;;;4878031;29;20292;-61
2022/07/12 07:33:39;;;;;;;4.78;4.40;;;26.20;99.90;;;;;;4878209;29;20268;-61
2022/07/12 07:36:09;;;;;;;5.85;5.30;;;26.20;99.90;;;;;;4876417;29;20203;-61
2022/07/12 07:38:37;;;;;;;4.57;4.28;;;26.20;99.90;;;;;;4877908;29;20267;-61
2022/07/12 07:41:06;;;;;;;5.07;4.60;;;26.30;99.90;;;;;;4876254;29;20206;-61
2022/07/12 07:43:34;;;;;;;7.43;4.15;;;26.20;99.90;;;;;;4875360;29;20220;-61
2022/07/12 07:46:03;;;;;;;5.30;4.88;;;26.40;99.90;;;;;;4878580;29;20288;-61
2022/07/12 07:48:31;;;;;;;6.60;5.20;;;26.40;99.90;;;;;;4881628;29;20279;-61
2022/07/12 07:51:00;;;;;;;4.97;4.68;;;26.10;99.90;;;;;;4880179;29;20205;-61
2022/07/12 07:53:30;;;;;;;5.25;4.95;;;26.20;99.90;;;;;;4884783;29;20203;-61
2022/07/12 07:55:58;;;;;;;5.53;5.03;;;25.80;99.90;;;;;;4881239;29;20220;-61
2022/07/12 07:58:27;;;;;;;5.20;4.80;;;25.70;99.90;;;;;;4880489;29;20286;-61
2022/07/12 08:00:56;;;;;;;5.80;5.40;;;25.80;99.90;;;;;;4879882;29;20203;-61
2022/07/12 08:03:25;;;;;;;5.87;5.17;;;25.90;99.90;;;;;;4881261;29;20309;-61
2022/07/12 08:05:57;;;;;;;5.30;4.90;;;26.20;99.90;;;;;;4881006;29;20200;-61
2022/07/12 08:08:25;;;;;;;4.80;4.40;;;26.60;99.90;;;;;;4880015;29;20621;-61
2022/07/12 08:11:15;;;;;;;4.28;4.07;;;27.10;99.90;;;;;;4868978;29;20260;-61
2022/07/12 08:13:44;;;;;;;4.20;3.90;;;28.00;99.90;;;;;;4880086;29;20202;-61
2022/07/12 08:16:12;;;;;;;4.30;4.00;;;28.10;99.90;;;;;;4880785;29;20253;-61
2022/07/12 08:18:41;;;;;;;4.43;4.10;;;28.70;99.90;;;;;;4881070;29;20597;-62
2022/07/12 08:21:09;;;;;;;4.03;3.72;;;29.10;99.90;;;;;;4880695;29;20289;-61
2022/07/12 08:23:38;;;;;;;3.75;3.55;;;28.90;99.90;;;;;;4880941;29;20310;-61
2022/07/12 08:26:06;;;;;;;4.13;3.80;;;29.00;99.90;;;;;;4879496;29;20636;-61
2022/07/12 08:28:36;;;;;;;3.85;3.60;;;29.70;99.90;;;;;;4879555;29;20199;-62
2022/07/12 08:31:05;;;;;;;6.03;4.10;;;29.80;99.90;;;;;;4880092;29;20212;-62
2022/07/12 08:33:33;;;;;;;4.22;3.92;;;29.80;99.90;;;;;;4880494;29;20645;-62
2022/07/12 08:36:01;;;;;;;7.75;3.78;;;29.50;99.90;;;;;;4879228;29;20285;-61
2022/07/12 08:38:31;;;;;;;3.53;3.22;;;29.20;99.90;;;;;;4880717;29;20207;-62
2022/07/12 08:41:00;;;;;;;4.13;3.30;;;29.30;99.90;;;;;;4879404;29;20206;-62
2022/07/12 08:43:29;;;;;;;3.80;3.35;;;29.40;99.90;;;;;;4877401;29;20753;-61
2022/07/12 08:46:05;;;;;;;3.97;3.67;;;29.60;99.90;;;;;;4876839;29;20213;-61
2022/07/12 08:48:34;;;;;;;4.22;3.25;;;29.90;99.90;;;;;;4868788;29;20567;-62
2022/07/12 08:51:05;;;;;;;3.17;3.00;;;30.70;99.90;;;;;;4879111;29;20217;-61
2022/07/12 08:53:33;;;;;;;3.85;3.60;;;31.10;99.90;;;;;;4884025;29;20242;-61
2022/07/12 08:56:02;;;;;;;3.03;2.90;;;30.30;99.90;;;;;;4880391;29;20207;-61
2022/07/12 08:58:31;;;;;;;3.50;3.10;;;29.40;99.90;;;;;;4879281;29;20214;-61
2022/07/12 09:01:00;;;;;;;4.43;3.78;;;29.20;99.90;;;;;;4879973;29;20207;-61
2022/07/12 09:03:30;;;;;;;3.75;3.55;;;28.90;99.90;;;;;;4880314;29;20225;-61
2022/07/12 09:05:59;;;;;;;3.13;3.03;;;28.70;99.90;;;;;;4879667;29;20236;-61
2022/07/12 09:08:32;;;;;;;4.05;3.60;;;28.50;99.90;;;;;;4880283;29;20213;-61
2022/07/12 09:11:02;;;;;;;4.88;3.20;;;28.60;99.90;;;;;;4880014;29;20625;-61
2022/07/12 09:13:53;;;;;;;3.97;3.60;;;29.20;99.90;;;;;;4878994;29;20195;-61
2022/07/12 09:16:23;;;;;;;4.00;3.65;;;30.20;99.90;;;;;;4868422;29;20310;-61
2022/07/12 09:19:13;;;;;;;3.13;2.92;;;31.00;99.90;;;;;;4880238;29;20215;-62
2022/07/12 09:21:49;;;;;;;3.60;3.33;;;31.90;99.90;;;;;;4879514;29;20248;-62
2022/07/12 09:24:18;;;;;;;3.30;3.15;;;32.20;99.90;;;;;;4878585;29;20286;-62
2022/07/12 09:26:47;;;;;;;4.32;4.13;;;32.20;99.90;;;;;;4879739;29;20203;-61
2022/07/12 09:29:16;;;;;;;4.25;3.78;;;31.80;99.90;;;;;;4877060;29;20214;-61
2022/07/12 09:37:22;;;;;;;3.58;3.28;;;31.90;99.90;;;;;;4879565;29;20202;-61
2022/07/12 09:39:54;;;;;;;3.92;3.65;;;31.90;99.90;;;;;;4878348;29;20258;-61
2022/07/12 09:42:24;;;;;;;4.00;3.70;;;31.50;99.90;;;;;;4878456;29;20202;-61
2022/07/12 09:44:57;;;;;;;3.78;3.47;;;31.20;99.90;;;;;;4877827;29;20225;-61
2022/07/12 09:47:27;;;;;;;3.63;3.47;;;30.70;99.90;;;;;;4879408;29;20243;-61
2022/07/12 09:49:57;;;;;;;3.80;3.35;;;30.90;99.90;;;;;;4877975;29;20210;-61
2022/07/12 09:52:27;;;;;;;3.60;3.40;;;30.90;99.90;;;;;;4878971;29;20718;-61
2022/07/12 09:54:56;;;;;;;3.80;3.50;;;31.10;99.90;;;;;;4877981;29;20207;-61
2022/07/12 09:57:28;;;;;;;4.07;3.45;;;31.30;99.90;;;;;;4878803;29;20237;-61
2022/07/12 09:59:58;;;;;;;4.57;3.38;;;31.20;99.90;;;;;;4882547;29;20265;-61
2022/07/12 10:02:27;;;;;;;3.38;3.17;;;31.00;99.90;;;;;;4877766;29;20209;-61
2022/07/12 10:05:05;;;;;;;4.80;3.40;;;31.20;99.90;;;;;;4877647;29;20213;-61
2022/07/12 10:07:34;;;;;;;3.90;3.60;;;31.30;99.90;;;;;;4878398;29;20686;-61
2022/07/12 10:10:05;;;;;;;4.60;3.10;;;31.20;99.90;;;;;;4876738;29;20211;-60
2022/07/12 10:12:34;;;;;;;2.95;2.83;;;31.00;99.90;;;;;;4878925;29;20199;-61
2022/07/12 10:15:05;;;;;;;5.22;3.10;;;31.30;99.90;;;;;;4875670;29;20204;-61
2022/07/12 10:17:35;;;;;;;4.90;3.10;;;31.80;99.90;;;;;;4878593;29;20233;-61
2022/07/12 10:20:19;;;;;;;4.97;3.10;;;31.50;99.90;;;;;;4877888;29;20206;-60
2022/07/12 10:22:47;;;;;;;3.78;3.47;;;31.60;99.90;;;;;;4866673;29;20242;-61
2022/07/12 10:25:32;;;;;;;4.35;3.95;;;31.60;99.90;;;;;;4878874;29;20324;-61
2022/07/12 10:28:02;;;;;;;4.07;3.22;;;31.40;99.90;;;;;;4877656;29;20206;-61
2022/07/12 10:30:31;;;;;;;2.88;2.67;;;31.50;99.90;;;;;;4877193;29;20222;-61
2022/07/12 10:33:00;;;;;;;4.55;3.00;;;31.90;99.90;;;;;;4877595;29;20212;-61
2022/07/12 10:35:32;;;;;;;3.08;2.90;;;32.30;99.90;;;;;;4878504;29;20210;-61
2022/07/12 10:38:20;;;;;;;4.22;2.85;;;32.30;99.90;;;;;;4862192;29;20261;-61
2022/07/12 10:40:50;;;;;;;2.92;2.60;;;32.70;99.90;;;;;;4877540;29;20280;-61
2022/07/12 10:46:25;;;;;;;3.03;2.92;;;32.10;99.90;;;;;;4877654;29;20678;-60
2022/07/12 10:49:26;;;;;;;3.50;3.22;;;31.80;99.90;;;;;;4877836;29;20205;-61
2022/07/12 10:52:25;;;;;;;2.90;2.70;;;31.60;99.90;;;;;;4871979;29;20658;-61
2022/07/12 10:55:19;;;;;;;2.80;2.70;;;31.50;99.90;;;;;;4878089;29;20207;-61
2022/07/12 10:57:54;;;;;;;2.78;2.60;;;32.00;99.90;;;;;;4876796;29;20210;-61
2022/07/12 11:00:23;;;;;;;3.17;3.05;;;32.30;99.90;;;;;;4878248;29;20223;-61
2022/07/12 11:02:51;;;;;;;4.65;2.90;;;32.60;99.90;;;;;;4878011;29;20245;-61
2022/07/12 11:05:26;;;;;;;2.95;2.85;;;32.40;99.90;;;;;;4877847;29;20699;-61
2022/07/12 11:07:57;;;;;;;2.60;2.50;;;32.30;99.90;;;;;;4877835;29;20201;-61
2022/07/12 11:10:26;;;;;;;2.28;2.28;;;32.60;99.90;;;;;;4877756;29;20832;-61
2022/07/12 11:12:55;;;;;;;1.90;1.90;;;32.70;99.90;;;;;;4877458;29;20650;-61
2022/07/12 11:15:24;;;;;;;2.38;2.28;;;32.80;99.90;;;;;;4877410;29;20202;-61
2022/07/12 11:17:52;;;;;;;2.05;1.95;;;32.70;99.90;;;;;;4875776;29;20233;-60
2022/07/12 11:20:22;;;;;;;2.22;2.03;;;32.50;99.40;;;;;;4875262;29;20210;-61
2022/07/12 11:22:51;;;;;;;2.30;2.20;;;32.50;99.30;;;;;;4876784;29;20231;-61
2022/07/12 11:25:22;;;;;;;2.95;2.00;;;32.30;99.30;;;;;;4877198;29;20234;-61
2022/07/12 11:27:50;;;;;;;2.95;2.10;;;32.20;98.40;;;;;;4877736;29;20286;-61
2022/07/12 11:30:19;;;;;;;1.90;1.90;;;32.40;99.90;;;;;;4877707;29;20230;-61
2022/07/12 11:32:48;;;;;;;1.90;1.90;;;32.60;98.90;;;;;;4877757;29;20211;-61
2022/07/12 11:35:23;;;;;;;2.00;2.00;;;32.10;98.50;;;;;;4877840;29;20235;-61
2022/07/12 11:37:53;;;;;;;2.10;2.00;;;31.80;99.00;;;;;;4877947;29;20709;-61
2022/07/12 11:40:28;;;;;;;2.53;2.33;;;32.20;99.10;;;;;;4878026;29;20290;-61
2022/07/12 11:42:59;;;;;;;4.10;2.50;;;32.20;99.70;;;;;;4877578;29;20313;-61
2022/07/12 11:45:29;;;;;;;3.33;2.40;;;32.10;98.70;;;;;;4877706;29;20240;-61
2022/07/12 11:48:01;;;;;;;5.82;2.47;;;31.80;98.70;;;;;;4877396;29;20286;-60
2022/07/12 11:50:30;;;;;;;2.25;2.08;;;31.70;99.90;;;;;;4877815;29;20282;-61
2022/07/12 11:53:04;;;;;;;2.20;2.10;;;31.70;99.10;;;;;;4879755;29;20207;-61
2022/07/12 11:55:43;;;;;;;2.80;2.33;;;31.70;99.20;;;;;;4877769;29;20199;-61
2022/07/12 11:58:13;;;;;;;4.78;2.40;;;32.00;99.90;;;;;;4876313;29;20297;-61
2022/07/12 12:00:41;;;;;;;3.53;2.50;;;31.80;98.10;;;;;;4877451;29;20218;-61
2022/07/12 12:03:10;;;;;;;2.50;2.35;;;31.80;98.90;;;;;;4877663;29;20671;-61
2022/07/12 12:05:40;;;;;;;2.70;2.50;;;31.80;99.50;;;;;;4877620;29;20247;-61
2022/07/12 12:08:11;;;;;;;2.50;2.40;;;31.70;99.80;;;;;;4876365;29;20290;-60
2022/07/12 12:10:41;;;;;;;2.88;2.40;;;31.80;99.90;;;;;;4877627;29;20719;-61
2022/07/12 12:13:16;;;;;;;2.40;2.30;;;31.90;99.90;;;;;;4877507;29;20199;-61
2022/07/12 12:15:51;;;;;;;2.38;2.28;;;32.00;99.90;;;;;;4876294;29;20819;-61
2022/07/12 12:18:30;;;;;;;2.13;2.03;;;31.90;99.50;;;;;;4876586;29;20210;-60
2022/07/12 12:21:01;;;;;;;2.50;2.20;;;31.80;99.30;;;;;;4877374;29;20206;-61
2022/07/12 12:23:29;;;;;;;2.30;2.17;;;31.80;98.50;;;;;;4877405;29;20248;-60
2022/07/12 12:26:17;;;;;;;2.40;2.20;;;31.80;99.40;;;;;;4877435;29;20228;-61
2022/07/12 12:28:47;;;;;;;1.90;1.90;;;31.90;98.20;;;;;;4875931;29;20296;-61
2022/07/12 12:31:18;;;;;;;2.33;2.17;;;31.90;98.70;;;;;;4878467;29;20213;-60
2022/07/12 12:33:49;;;;;;;2.55;2.45;;;31.70;97.70;;;;;;4880927;29;20217;-61
2022/07/12 12:36:21;;;;;;;2.90;2.70;;;31.80;99.30;;;;;;4880752;29;20204;-61
2022/07/12 12:38:51;;;;;;;2.60;2.40;;;31.50;98.20;;;;;;4880892;29;20302;-61
2022/07/12 12:41:23;;;;;;;2.47;2.30;;;31.20;99.10;;;;;;4880597;29;20235;-60
2022/07/12 12:43:59;;;;;;;2.55;2.35;;;31.30;98.70;;;;;;4880668;29;20211;-61
2022/07/12 12:46:47;;;;;;;1.80;1.80;;;31.30;99.40;;;;;;4880240;29;20219;-60
2022/07/12 12:49:15;;;;;;;1.98;1.88;;;31.20;96.70;;;;;;4881076;29;20672;-60
2022/07/12 12:51:58;;;;;;;1.70;1.60;;;31.20;95.90;;;;;;4880278;29;20213;-61
2022/07/12 12:54:33;;;;;;;1.52;1.52;;;31.20;95.40;;;;;;4883965;29;20220;-60
2022/07/12 12:57:04;;;;;;;1.65;1.65;;;31.10;93.70;;;;;;4880243;29;20662;-60
2022/07/12 12:59:33;;;;;;;3.15;2.10;;;31.20;93.60;;;;;;4880425;29;20211;-60
2022/07/12 13:02:03;;;;;;;2.38;2.28;;;31.40;94.30;;;;;;4880248;29;20235;-60
2022/07/12 13:04:33;;;;;;;2.70;2.20;;;31.40;96.60;;;;;;4880244;29;20208;-61
2022/07/12 13:07:02;;;;;;;3.75;2.30;;;31.30;97.00;;;;;;4879687;29;20285;-60
2022/07/12 13:09:38;;;;;;;2.10;2.10;;;31.20;96.70;;;;;;4880295;29;20201;-60
2022/07/12 13:12:08;;;;;;;2.35;2.30;;;31.00;96.70;;;;;;4879937;29;20208;-61